sensor_id;sensor_type;location;lat;lon;timestamp;P1;durP1;ratioP1;P2;durP2;ratioP2
64037;SDS011;54641;50.168;8.492;2022-07-09T00:01:57;3.90;;;2.70;;
64037;SDS011;54641;50.168;8.492;2022-07-09T00:04:28;4.70;;;3.20;;
64037;SDS011;54641;50.168;8.492;2022-07-09T00:06:58;3.90;;;2.70;;
64037;SDS011;54641;50.168;8.492;2022-07-09T00:09:29;6.40;;;3.10;;
64037;SDS011;54641;50.168;8.492;2022-07-09T00:11:59;4.80;;;2.90;;
64037;SDS011;54641;50.168;8.492;2022-07-09T00:14:29;4.60;;;2.80;;
64037;SDS011;54641;50.168;8.492;2022-07-09T00:17:00;3.50;;;2.40;;
64037;SDS011;54641;50.168;8.492;2022-07-09T00:19:31;4.00;;;2.90;;
64037;SDS011;54641;50.168;8.492;2022-07-09T00:22:01;4.20;;;2.60;;
64037;SDS011;54641;50.168;8.492;2022-07-09T00:24:33;5.70;;;3.00;;
64037;SDS011;54641;50.168;8.492;2022-07-09T00:27:04;4.60;;;2.60;;
64037;SDS011;54641;50.168;8.492;2022-07-09T00:29:35;4.10;;;3.10;;
64037;SDS011;54641;50.168;8.492;2022-07-09T00:32:05;3.40;;;2.70;;
64037;SDS011;54641;50.168;8.492;2022-07-09T00:34:36;7.70;;;3.30;;
64037;SDS011;54641;50.168;8.492;2022-07-09T00:37:07;4.10;;;3.00;;
64037;SDS011;54641;50.168;8.492;2022-07-09T00:39:37;5.40;;;3.10;;
64037;SDS011;54641;50.168;8.492;2022-07-09T00:42:08;4.20;;;3.10;;
64037;SDS011;54641;50.168;8.492;2022-07-09T00:44:39;5.70;;;2.90;;
64037;SDS011;54641;50.168;8.492;2022-07-09T00:47:09;3.50;;;3.00;;
64037;SDS011;54641;50.168;8.492;2022-07-09T00:49:41;4.60;;;2.80;;
64037;SDS011;54641;50.168;8.492;2022-07-09T00:52:13;5.60;;;3.00;;
64037;SDS011;54641;50.168;8.492;2022-07-09T00:54:44;7.60;;;3.60;;
64037;SDS011;54641;50.168;8.492;2022-07-09T00:57:15;5.60;;;3.30;;
64037;SDS011;54641;50.168;8.492;2022-07-09T00:59:47;5.20;;;3.40;;
64037;SDS011;54641;50.168;8.492;2022-07-09T01:02:18;5.40;;;3.60;;
64037;SDS011;54641;50.168;8.492;2022-07-09T01:04:48;5.30;;;3.30;;
64037;SDS011;54641;50.168;8.492;2022-07-09T01:07:19;4.60;;;3.50;;
64037;SDS011;54641;50.168;8.492;2022-07-09T01:09:49;7.00;;;3.80;;
64037;SDS011;54641;50.168;8.492;2022-07-09T01:12:20;7.10;;;3.90;;
64037;SDS011;54641;50.168;8.492;2022-07-09T01:14:50;8.50;;;3.80;;
64037;SDS011;54641;50.168;8.492;2022-07-09T01:17:21;5.60;;;3.30;;
64037;SDS011;54641;50.168;8.492;2022-07-09T01:19:51;6.50;;;3.90;;
64037;SDS011;54641;50.168;8.492;2022-07-09T01:22:22;7.90;;;3.70;;
64037;SDS011;54641;50.168;8.492;2022-07-09T01:24:52;5.20;;;3.70;;
64037;SDS011;54641;50.168;8.492;2022-07-09T01:27:24;4.50;;;3.50;;
64037;SDS011;54641;50.168;8.492;2022-07-09T01:29:54;5.90;;;3.90;;
64037;SDS011;54641;50.168;8.492;2022-07-09T01:32:25;10.00;;;3.70;;
64037;SDS011;54641;50.168;8.492;2022-07-09T01:34:56;4.90;;;3.20;;
64037;SDS011;54641;50.168;8.492;2022-07-09T01:37:27;5.00;;;3.30;;
64037;SDS011;54641;50.168;8.492;2022-07-09T01:39:57;5.70;;;3.40;;
64037;SDS011;54641;50.168;8.492;2022-07-09T01:42:27;6.10;;;3.50;;
64037;SDS011;54641;50.168;8.492;2022-07-09T01:44:58;5.80;;;3.40;;
64037;SDS011;54641;50.168;8.492;2022-07-09T01:47:28;4.90;;;3.70;;
64037;SDS011;54641;50.168;8.492;2022-07-09T01:49:59;7.60;;;3.50;;
64037;SDS011;54641;50.168;8.492;2022-07-09T01:52:29;5.70;;;3.30;;
64037;SDS011;54641;50.168;8.492;2022-07-09T01:55:00;6.70;;;3.50;;
64037;SDS011;54641;50.168;8.492;2022-07-09T01:57:31;10.10;;;5.30;;
64037;SDS011;54641;50.168;8.492;2022-07-09T02:00:02;7.60;;;4.30;;
64037;SDS011;54641;50.168;8.492;2022-07-09T02:02:39;7.10;;;3.90;;
64037;SDS011;54641;50.168;8.492;2022-07-09T02:05:09;6.30;;;3.10;;
64037;SDS011;54641;50.168;8.492;2022-07-09T02:07:40;5.60;;;3.90;;
64037;SDS011;54641;50.168;8.492;2022-07-09T02:10:10;5.90;;;3.70;;
64037;SDS011;54641;50.168;8.492;2022-07-09T02:12:41;4.90;;;3.40;;
64037;SDS011;54641;50.168;8.492;2022-07-09T02:15:11;5.10;;;3.30;;
64037;SDS011;54641;50.168;8.492;2022-07-09T02:17:42;9.30;;;4.10;;
64037;SDS011;54641;50.168;8.492;2022-07-09T02:20:12;5.90;;;3.70;;
64037;SDS011;54641;50.168;8.492;2022-07-09T02:22:43;8.00;;;3.80;;
64037;SDS011;54641;50.168;8.492;2022-07-09T02:25:13;8.00;;;4.50;;
64037;SDS011;54641;50.168;8.492;2022-07-09T02:27:44;6.10;;;4.00;;
64037;SDS011;54641;50.168;8.492;2022-07-09T02:30:14;8.60;;;3.10;;
64037;SDS011;54641;50.168;8.492;2022-07-09T02:32:45;5.80;;;4.20;;
64037;SDS011;54641;50.168;8.492;2022-07-09T02:35:16;7.00;;;4.10;;
64037;SDS011;54641;50.168;8.492;2022-07-09T02:37:46;4.50;;;3.50;;
64037;SDS011;54641;50.168;8.492;2022-07-09T02:40:16;5.50;;;3.70;;
64037;SDS011;54641;50.168;8.492;2022-07-09T02:42:47;6.30;;;4.30;;
64037;SDS011;54641;50.168;8.492;2022-07-09T02:45:17;7.40;;;4.20;;
64037;SDS011;54641;50.168;8.492;2022-07-09T02:47:48;7.40;;;3.90;;
64037;SDS011;54641;50.168;8.492;2022-07-09T02:50:18;6.00;;;4.20;;
64037;SDS011;54641;50.168;8.492;2022-07-09T02:52:49;4.40;;;3.30;;
64037;SDS011;54641;50.168;8.492;2022-07-09T02:55:19;4.10;;;3.10;;
64037;SDS011;54641;50.168;8.492;2022-07-09T02:57:50;7.00;;;4.20;;
64037;SDS011;54641;50.168;8.492;2022-07-09T03:00:20;8.20;;;4.30;;
64037;SDS011;54641;50.168;8.492;2022-07-09T03:02:51;4.80;;;3.90;;
64037;SDS011;54641;50.168;8.492;2022-07-09T03:05:21;6.70;;;4.30;;
64037;SDS011;54641;50.168;8.492;2022-07-09T03:07:51;7.40;;;4.40;;
64037;SDS011;54641;50.168;8.492;2022-07-09T03:10:22;7.80;;;4.20;;
64037;SDS011;54641;50.168;8.492;2022-07-09T03:12:53;6.80;;;4.90;;
64037;SDS011;54641;50.168;8.492;2022-07-09T03:15:23;6.80;;;4.20;;
64037;SDS011;54641;50.168;8.492;2022-07-09T03:17:54;5.80;;;4.80;;
64037;SDS011;54641;50.168;8.492;2022-07-09T03:20:25;5.90;;;4.30;;
64037;SDS011;54641;50.168;8.492;2022-07-09T03:22:55;6.40;;;4.90;;
64037;SDS011;54641;50.168;8.492;2022-07-09T03:25:26;6.50;;;4.60;;
64037;SDS011;54641;50.168;8.492;2022-07-09T03:27:57;7.10;;;5.10;;
64037;SDS011;54641;50.168;8.492;2022-07-09T03:30:28;8.30;;;4.40;;
64037;SDS011;54641;50.168;8.492;2022-07-09T03:32:58;9.90;;;4.90;;
64037;SDS011;54641;50.168;8.492;2022-07-09T03:35:32;8.90;;;4.30;;
64037;SDS011;54641;50.168;8.492;2022-07-09T03:38:02;7.00;;;3.90;;
64037;SDS011;54641;50.168;8.492;2022-07-09T03:40:32;8.10;;;5.20;;
64037;SDS011;54641;50.168;8.492;2022-07-09T03:43:03;9.30;;;5.20;;
64037;SDS011;54641;50.168;8.492;2022-07-09T03:45:33;7.70;;;5.10;;
64037;SDS011;54641;50.168;8.492;2022-07-09T03:48:04;9.80;;;5.00;;
64037;SDS011;54641;50.168;8.492;2022-07-09T03:50:35;9.10;;;5.00;;
64037;SDS011;54641;50.168;8.492;2022-07-09T03:53:06;7.40;;;4.90;;
64037;SDS011;54641;50.168;8.492;2022-07-09T03:55:36;5.90;;;4.40;;
64037;SDS011;54641;50.168;8.492;2022-07-09T03:58:07;5.60;;;4.60;;
64037;SDS011;54641;50.168;8.492;2022-07-09T04:00:37;5.60;;;4.20;;
64037;SDS011;54641;50.168;8.492;2022-07-09T04:03:07;8.20;;;4.70;;
64037;SDS011;54641;50.168;8.492;2022-07-09T04:05:38;7.90;;;4.70;;
64037;SDS011;54641;50.168;8.492;2022-07-09T04:08:09;6.80;;;4.50;;
64037;SDS011;54641;50.168;8.492;2022-07-09T04:10:39;7.70;;;5.20;;
64037;SDS011;54641;50.168;8.492;2022-07-09T04:13:10;8.50;;;4.30;;
64037;SDS011;54641;50.168;8.492;2022-07-09T04:15:41;8.40;;;4.80;;
64037;SDS011;54641;50.168;8.492;2022-07-09T04:18:14;8.00;;;4.70;;
64037;SDS011;54641;50.168;8.492;2022-07-09T04:20:45;7.60;;;4.20;;
64037;SDS011;54641;50.168;8.492;2022-07-09T04:23:16;10.40;;;4.50;;
64037;SDS011;54641;50.168;8.492;2022-07-09T04:25:46;6.40;;;3.90;;
64037;SDS011;54641;50.168;8.492;2022-07-09T04:28:18;8.60;;;3.60;;
64037;SDS011;54641;50.168;8.492;2022-07-09T04:30:48;5.10;;;3.90;;
64037;SDS011;54641;50.168;8.492;2022-07-09T04:33:19;6.90;;;4.40;;
64037;SDS011;54641;50.168;8.492;2022-07-09T04:35:49;6.70;;;4.90;;
64037;SDS011;54641;50.168;8.492;2022-07-09T04:38:20;7.20;;;4.20;;
64037;SDS011;54641;50.168;8.492;2022-07-09T04:40:51;6.20;;;4.10;;
64037;SDS011;54641;50.168;8.492;2022-07-09T04:43:22;5.80;;;3.60;;
64037;SDS011;54641;50.168;8.492;2022-07-09T04:45:53;4.50;;;3.40;;
64037;SDS011;54641;50.168;8.492;2022-07-09T04:48:24;6.40;;;4.00;;
64037;SDS011;54641;50.168;8.492;2022-07-09T04:50:54;7.20;;;4.20;;
64037;SDS011;54641;50.168;8.492;2022-07-09T04:53:25;8.10;;;4.20;;
64037;SDS011;54641;50.168;8.492;2022-07-09T04:55:55;7.30;;;3.80;;
64037;SDS011;54641;50.168;8.492;2022-07-09T04:58:25;6.70;;;4.20;;
64037;SDS011;54641;50.168;8.492;2022-07-09T05:00:57;7.00;;;4.00;;
64037;SDS011;54641;50.168;8.492;2022-07-09T05:03:27;6.40;;;3.70;;
64037;SDS011;54641;50.168;8.492;2022-07-09T05:05:58;6.40;;;3.90;;
64037;SDS011;54641;50.168;8.492;2022-07-09T05:08:29;5.70;;;3.60;;
64037;SDS011;54641;50.168;8.492;2022-07-09T05:11:01;7.10;;;3.10;;
64037;SDS011;54641;50.168;8.492;2022-07-09T05:13:31;5.30;;;3.80;;
64037;SDS011;54641;50.168;8.492;2022-07-09T05:16:02;5.00;;;3.30;;
64037;SDS011;54641;50.168;8.492;2022-07-09T05:18:33;5.10;;;3.40;;
64037;SDS011;54641;50.168;8.492;2022-07-09T05:21:05;4.90;;;3.20;;
64037;SDS011;54641;50.168;8.492;2022-07-09T05:23:36;4.50;;;3.60;;
64037;SDS011;54641;50.168;8.492;2022-07-09T05:26:06;6.50;;;4.00;;
64037;SDS011;54641;50.168;8.492;2022-07-09T05:28:37;6.60;;;3.70;;
64037;SDS011;54641;50.168;8.492;2022-07-09T05:31:07;4.60;;;3.30;;
64037;SDS011;54641;50.168;8.492;2022-07-09T05:33:58;6.00;;;3.90;;
64037;SDS011;54641;50.168;8.492;2022-07-09T05:36:28;5.60;;;3.20;;
64037;SDS011;54641;50.168;8.492;2022-07-09T05:38:59;5.60;;;3.40;;
64037;SDS011;54641;50.168;8.492;2022-07-09T05:41:29;5.50;;;3.40;;
64037;SDS011;54641;50.168;8.492;2022-07-09T05:44:00;7.10;;;3.50;;
64037;SDS011;54641;50.168;8.492;2022-07-09T05:46:31;5.70;;;3.20;;
64037;SDS011;54641;50.168;8.492;2022-07-09T05:49:01;4.30;;;3.50;;
64037;SDS011;54641;50.168;8.492;2022-07-09T05:51:32;6.10;;;3.40;;
64037;SDS011;54641;50.168;8.492;2022-07-09T05:54:02;5.40;;;3.60;;
64037;SDS011;54641;50.168;8.492;2022-07-09T05:56:33;5.20;;;3.50;;
64037;SDS011;54641;50.168;8.492;2022-07-09T05:59:04;5.60;;;3.50;;
64037;SDS011;54641;50.168;8.492;2022-07-09T06:01:34;7.40;;;4.50;;
64037;SDS011;54641;50.168;8.492;2022-07-09T06:04:07;7.90;;;4.90;;
64037;SDS011;54641;50.168;8.492;2022-07-09T06:06:38;12.40;;;6.30;;
64037;SDS011;54641;50.168;8.492;2022-07-09T06:09:09;12.30;;;6.30;;
64037;SDS011;54641;50.168;8.492;2022-07-09T06:11:39;10.90;;;6.40;;
64037;SDS011;54641;50.168;8.492;2022-07-09T06:14:09;8.60;;;5.50;;
64037;SDS011;54641;50.168;8.492;2022-07-09T06:16:40;8.80;;;6.00;;
64037;SDS011;54641;50.168;8.492;2022-07-09T06:19:10;7.90;;;5.10;;
64037;SDS011;54641;50.168;8.492;2022-07-09T06:21:41;8.70;;;5.20;;
64037;SDS011;54641;50.168;8.492;2022-07-09T06:24:12;8.20;;;4.60;;
64037;SDS011;54641;50.168;8.492;2022-07-09T06:26:42;7.10;;;4.30;;
64037;SDS011;54641;50.168;8.492;2022-07-09T06:29:14;9.30;;;6.40;;
64037;SDS011;54641;50.168;8.492;2022-07-09T06:31:44;9.10;;;6.50;;
64037;SDS011;54641;50.168;8.492;2022-07-09T06:34:15;8.10;;;5.80;;
64037;SDS011;54641;50.168;8.492;2022-07-09T06:36:46;9.10;;;5.50;;
64037;SDS011;54641;50.168;8.492;2022-07-09T06:39:17;7.40;;;5.00;;
64037;SDS011;54641;50.168;8.492;2022-07-09T06:42:06;8.90;;;6.00;;
64037;SDS011;54641;50.168;8.492;2022-07-09T06:44:37;10.50;;;6.80;;
64037;SDS011;54641;50.168;8.492;2022-07-09T06:47:08;10.30;;;7.20;;
64037;SDS011;54641;50.168;8.492;2022-07-09T06:49:38;8.80;;;6.00;;
64037;SDS011;54641;50.168;8.492;2022-07-09T06:52:09;10.20;;;5.50;;
64037;SDS011;54641;50.168;8.492;2022-07-09T06:54:39;8.80;;;7.00;;
64037;SDS011;54641;50.168;8.492;2022-07-09T06:57:10;8.90;;;6.10;;
64037;SDS011;54641;50.168;8.492;2022-07-09T06:59:41;15.10;;;7.70;;
64037;SDS011;54641;50.168;8.492;2022-07-09T07:02:13;11.60;;;8.00;;
64037;SDS011;54641;50.168;8.492;2022-07-09T07:04:44;9.30;;;6.70;;
64037;SDS011;54641;50.168;8.492;2022-07-09T07:07:14;8.10;;;6.20;;
64037;SDS011;54641;50.168;8.492;2022-07-09T07:09:45;8.40;;;5.50;;
64037;SDS011;54641;50.168;8.492;2022-07-09T07:12:15;9.60;;;6.50;;
64037;SDS011;54641;50.168;8.492;2022-07-09T07:14:46;10.40;;;6.40;;
64037;SDS011;54641;50.168;8.492;2022-07-09T07:17:16;9.60;;;5.20;;
64037;SDS011;54641;50.168;8.492;2022-07-09T07:19:47;12.20;;;7.50;;
64037;SDS011;54641;50.168;8.492;2022-07-09T07:22:18;8.90;;;5.70;;
64037;SDS011;54641;50.168;8.492;2022-07-09T07:24:48;8.20;;;5.30;;
64037;SDS011;54641;50.168;8.492;2022-07-09T07:27:18;7.00;;;4.90;;
64037;SDS011;54641;50.168;8.492;2022-07-09T07:29:49;6.30;;;5.20;;
64037;SDS011;54641;50.168;8.492;2022-07-09T07:32:19;7.90;;;5.00;;
64037;SDS011;54641;50.168;8.492;2022-07-09T07:34:50;7.30;;;5.40;;
64037;SDS011;54641;50.168;8.492;2022-07-09T07:37:20;9.00;;;6.30;;
64037;SDS011;54641;50.168;8.492;2022-07-09T07:39:50;7.00;;;4.70;;
64037;SDS011;54641;50.168;8.492;2022-07-09T07:42:21;6.40;;;4.00;;
64037;SDS011;54641;50.168;8.492;2022-07-09T07:44:51;7.80;;;5.20;;
64037;SDS011;54641;50.168;8.492;2022-07-09T07:47:22;12.10;;;5.70;;
64037;SDS011;54641;50.168;8.492;2022-07-09T07:49:52;7.90;;;4.40;;
64037;SDS011;54641;50.168;8.492;2022-07-09T07:52:23;7.00;;;4.70;;
64037;SDS011;54641;50.168;8.492;2022-07-09T07:54:53;7.30;;;4.60;;
64037;SDS011;54641;50.168;8.492;2022-07-09T07:57:24;10.50;;;6.10;;
64037;SDS011;54641;50.168;8.492;2022-07-09T07:59:55;9.70;;;5.60;;
64037;SDS011;54641;50.168;8.492;2022-07-09T08:02:25;10.40;;;7.10;;
64037;SDS011;54641;50.168;8.492;2022-07-09T08:04:56;9.10;;;6.70;;
64037;SDS011;54641;50.168;8.492;2022-07-09T08:07:26;10.00;;;6.40;;
64037;SDS011;54641;50.168;8.492;2022-07-09T08:09:57;6.70;;;5.70;;
64037;SDS011;54641;50.168;8.492;2022-07-09T08:12:27;8.70;;;6.50;;
64037;SDS011;54641;50.168;8.492;2022-07-09T08:14:58;8.00;;;5.30;;
64037;SDS011;54641;50.168;8.492;2022-07-09T08:17:28;8.80;;;5.00;;
64037;SDS011;54641;50.168;8.492;2022-07-09T08:19:59;8.40;;;6.00;;
64037;SDS011;54641;50.168;8.492;2022-07-09T08:22:29;8.70;;;6.20;;
64037;SDS011;54641;50.168;8.492;2022-07-09T08:25:00;9.20;;;5.80;;
64037;SDS011;54641;50.168;8.492;2022-07-09T08:27:30;7.10;;;4.90;;
64037;SDS011;54641;50.168;8.492;2022-07-09T08:30:01;8.50;;;4.70;;
64037;SDS011;54641;50.168;8.492;2022-07-09T08:32:32;7.00;;;5.00;;
64037;SDS011;54641;50.168;8.492;2022-07-09T08:35:03;8.50;;;5.20;;
64037;SDS011;54641;50.168;8.492;2022-07-09T08:37:34;6.40;;;4.60;;
64037;SDS011;54641;50.168;8.492;2022-07-09T08:40:06;6.30;;;4.30;;
64037;SDS011;54641;50.168;8.492;2022-07-09T08:42:37;6.10;;;4.60;;
64037;SDS011;54641;50.168;8.492;2022-07-09T08:45:10;6.50;;;4.30;;
64037;SDS011;54641;50.168;8.492;2022-07-09T08:47:42;6.00;;;4.30;;
64037;SDS011;54641;50.168;8.492;2022-07-09T08:50:12;7.20;;;4.40;;
64037;SDS011;54641;50.168;8.492;2022-07-09T08:52:43;6.40;;;5.10;;
64037;SDS011;54641;50.168;8.492;2022-07-09T08:55:13;5.20;;;4.00;;
64037;SDS011;54641;50.168;8.492;2022-07-09T08:57:44;5.80;;;3.50;;
64037;SDS011;54641;50.168;8.492;2022-07-09T09:00:15;5.40;;;3.90;;
64037;SDS011;54641;50.168;8.492;2022-07-09T09:02:45;5.50;;;3.50;;
64037;SDS011;54641;50.168;8.492;2022-07-09T09:05:16;7.60;;;4.20;;
64037;SDS011;54641;50.168;8.492;2022-07-09T09:07:47;6.80;;;4.40;;
64037;SDS011;54641;50.168;8.492;2022-07-09T09:10:23;5.50;;;4.10;;
64037;SDS011;54641;50.168;8.492;2022-07-09T09:12:58;4.50;;;3.20;;
64037;SDS011;54641;50.168;8.492;2022-07-09T09:15:29;7.20;;;4.30;;
64037;SDS011;54641;50.168;8.492;2022-07-09T09:18:00;5.60;;;3.40;;
64037;SDS011;54641;50.168;8.492;2022-07-09T09:20:32;7.50;;;3.70;;
64037;SDS011;54641;50.168;8.492;2022-07-09T09:23:04;5.70;;;3.30;;
64037;SDS011;54641;50.168;8.492;2022-07-09T09:25:38;4.00;;;2.70;;
64037;SDS011;54641;50.168;8.492;2022-07-09T09:28:09;5.20;;;2.90;;
64037;SDS011;54641;50.168;8.492;2022-07-09T09:30:42;7.40;;;3.40;;
64037;SDS011;54641;50.168;8.492;2022-07-09T09:33:14;3.40;;;2.90;;
64037;SDS011;54641;50.168;8.492;2022-07-09T09:35:46;5.00;;;3.10;;
64037;SDS011;54641;50.168;8.492;2022-07-09T09:38:23;5.10;;;3.10;;
64037;SDS011;54641;50.168;8.492;2022-07-09T09:40:57;3.30;;;2.80;;
64037;SDS011;54641;50.168;8.492;2022-07-09T09:43:27;5.10;;;3.10;;
64037;SDS011;54641;50.168;8.492;2022-07-09T09:46:00;6.90;;;3.20;;
64037;SDS011;54641;50.168;8.492;2022-07-09T09:48:32;4.50;;;3.20;;
64037;SDS011;54641;50.168;8.492;2022-07-09T09:53:33;6.50;;;3.70;;
64037;SDS011;54641;50.168;8.492;2022-07-09T09:56:05;5.00;;;3.40;;
64037;SDS011;54641;50.168;8.492;2022-07-09T09:58:36;5.20;;;3.60;;
64037;SDS011;54641;50.168;8.492;2022-07-09T10:01:07;6.40;;;3.60;;
64037;SDS011;54641;50.168;8.492;2022-07-09T10:03:37;6.70;;;4.20;;
64037;SDS011;54641;50.168;8.492;2022-07-09T10:06:09;6.00;;;4.20;;
64037;SDS011;54641;50.168;8.492;2022-07-09T10:08:40;5.40;;;3.90;;
64037;SDS011;54641;50.168;8.492;2022-07-09T10:11:10;7.70;;;4.50;;
64037;SDS011;54641;50.168;8.492;2022-07-09T10:13:50;6.20;;;4.40;;
64037;SDS011;54641;50.168;8.492;2022-07-09T10:16:33;6.50;;;4.30;;
64037;SDS011;54641;50.168;8.492;2022-07-09T10:19:04;5.00;;;4.20;;
64037;SDS011;54641;50.168;8.492;2022-07-09T10:21:36;5.80;;;4.20;;
64037;SDS011;54641;50.168;8.492;2022-07-09T10:24:08;8.20;;;4.70;;
64037;SDS011;54641;50.168;8.492;2022-07-09T10:26:43;7.20;;;5.20;;
64037;SDS011;54641;50.168;8.492;2022-07-09T10:29:18;5.00;;;4.10;;
64037;SDS011;54641;50.168;8.492;2022-07-09T10:31:54;5.90;;;4.40;;
64037;SDS011;54641;50.168;8.492;2022-07-09T10:37:16;7.60;;;4.80;;
64037;SDS011;54641;50.168;8.492;2022-07-09T10:39:53;5.30;;;4.20;;
64037;SDS011;54641;50.168;8.492;2022-07-09T10:42:24;4.90;;;4.40;;
64037;SDS011;54641;50.168;8.492;2022-07-09T10:44:55;6.90;;;4.20;;
64037;SDS011;54641;50.168;8.492;2022-07-09T10:47:25;6.40;;;3.90;;
64037;SDS011;54641;50.168;8.492;2022-07-09T10:50:07;5.00;;;3.90;;
64037;SDS011;54641;50.168;8.492;2022-07-09T10:52:38;6.40;;;3.90;;
64037;SDS011;54641;50.168;8.492;2022-07-09T10:55:09;4.50;;;3.60;;
64037;SDS011;54641;50.168;8.492;2022-07-09T10:57:40;4.30;;;3.60;;
64037;SDS011;54641;50.168;8.492;2022-07-09T11:00:10;4.80;;;3.60;;
64037;SDS011;54641;50.168;8.492;2022-07-09T11:02:56;6.90;;;3.90;;
64037;SDS011;54641;50.168;8.492;2022-07-09T11:05:31;6.80;;;3.90;;
64037;SDS011;54641;50.168;8.492;2022-07-09T11:08:03;3.70;;;3.30;;
64037;SDS011;54641;50.168;8.492;2022-07-09T11:10:35;3.60;;;3.30;;
64037;SDS011;54641;50.168;8.492;2022-07-09T11:13:07;5.10;;;3.30;;
64037;SDS011;54641;50.168;8.492;2022-07-09T11:15:38;5.30;;;3.50;;
64037;SDS011;54641;50.168;8.492;2022-07-09T11:18:10;5.10;;;3.20;;
64037;SDS011;54641;50.168;8.492;2022-07-09T11:20:42;5.00;;;3.40;;
64037;SDS011;54641;50.168;8.492;2022-07-09T11:23:14;5.00;;;3.20;;
64037;SDS011;54641;50.168;8.492;2022-07-09T11:25:45;4.00;;;3.30;;
64037;SDS011;54641;50.168;8.492;2022-07-09T11:28:19;5.70;;;3.20;;
64037;SDS011;54641;50.168;8.492;2022-07-09T11:31:00;4.70;;;3.00;;
64037;SDS011;54641;50.168;8.492;2022-07-09T11:33:31;4.30;;;3.20;;
64037;SDS011;54641;50.168;8.492;2022-07-09T11:36:16;3.30;;;2.90;;
64037;SDS011;54641;50.168;8.492;2022-07-09T11:38:48;4.40;;;3.00;;
64037;SDS011;54641;50.168;8.492;2022-07-09T11:43:48;3.10;;;2.80;;
64037;SDS011;54641;50.168;8.492;2022-07-09T11:48:52;3.40;;;2.80;;
64037;SDS011;54641;50.168;8.492;2022-07-09T11:51:30;3.90;;;2.80;;
64037;SDS011;54641;50.168;8.492;2022-07-09T11:54:01;5.00;;;2.80;;
64037;SDS011;54641;50.168;8.492;2022-07-09T11:56:40;3.00;;;2.70;;
64037;SDS011;54641;50.168;8.492;2022-07-09T11:59:13;4.70;;;2.70;;
64037;SDS011;54641;50.168;8.492;2022-07-09T12:01:43;4.10;;;2.70;;
64037;SDS011;54641;50.168;8.492;2022-07-09T12:04:18;3.60;;;2.80;;
64037;SDS011;54641;50.168;8.492;2022-07-09T12:06:50;4.90;;;2.70;;
64037;SDS011;54641;50.168;8.492;2022-07-09T12:09:28;6.90;;;3.10;;
64037;SDS011;54641;50.168;8.492;2022-07-09T12:11:59;5.10;;;2.80;;
64037;SDS011;54641;50.168;8.492;2022-07-09T12:14:30;4.40;;;3.00;;
64037;SDS011;54641;50.168;8.492;2022-07-09T12:17:01;4.10;;;3.00;;
64037;SDS011;54641;50.168;8.492;2022-07-09T12:19:31;3.40;;;3.10;;
64037;SDS011;54641;50.168;8.492;2022-07-09T12:22:03;5.50;;;3.10;;
64037;SDS011;54641;50.168;8.492;2022-07-09T12:24:33;4.00;;;2.80;;
64037;SDS011;54641;50.168;8.492;2022-07-09T12:27:04;3.50;;;2.70;;
64037;SDS011;54641;50.168;8.492;2022-07-09T12:29:51;4.00;;;3.00;;
64037;SDS011;54641;50.168;8.492;2022-07-09T12:32:21;3.70;;;2.80;;
64037;SDS011;54641;50.168;8.492;2022-07-09T12:34:52;3.60;;;2.90;;
64037;SDS011;54641;50.168;8.492;2022-07-09T12:37:22;3.30;;;2.70;;
64037;SDS011;54641;50.168;8.492;2022-07-09T12:39:53;4.20;;;2.70;;
64037;SDS011;54641;50.168;8.492;2022-07-09T12:42:23;3.30;;;2.80;;
64037;SDS011;54641;50.168;8.492;2022-07-09T12:44:54;4.00;;;2.80;;
64037;SDS011;54641;50.168;8.492;2022-07-09T12:47:24;3.40;;;2.50;;
64037;SDS011;54641;50.168;8.492;2022-07-09T12:49:55;2.60;;;2.40;;
64037;SDS011;54641;50.168;8.492;2022-07-09T12:52:25;3.60;;;2.30;;
64037;SDS011;54641;50.168;8.492;2022-07-09T12:57:26;2.70;;;2.30;;
64037;SDS011;54641;50.168;8.492;2022-07-09T12:59:56;3.10;;;2.40;;
64037;SDS011;54641;50.168;8.492;2022-07-09T13:02:27;3.00;;;2.30;;
64037;SDS011;54641;50.168;8.492;2022-07-09T13:04:57;2.40;;;2.10;;
64037;SDS011;54641;50.168;8.492;2022-07-09T13:07:28;4.60;;;2.60;;
64037;SDS011;54641;50.168;8.492;2022-07-09T13:09:59;2.90;;;2.30;;
64037;SDS011;54641;50.168;8.492;2022-07-09T13:12:29;3.00;;;2.40;;
64037;SDS011;54641;50.168;8.492;2022-07-09T13:15:01;3.30;;;2.20;;
64037;SDS011;54641;50.168;8.492;2022-07-09T13:17:32;3.40;;;2.50;;
64037;SDS011;54641;50.168;8.492;2022-07-09T13:20:02;3.90;;;2.30;;
64037;SDS011;54641;50.168;8.492;2022-07-09T13:22:34;4.00;;;2.50;;
64037;SDS011;54641;50.168;8.492;2022-07-09T13:25:05;4.10;;;2.60;;
64037;SDS011;54641;50.168;8.492;2022-07-09T13:27:36;3.80;;;2.20;;
64037;SDS011;54641;50.168;8.492;2022-07-09T13:30:08;3.10;;;2.40;;
64037;SDS011;54641;50.168;8.492;2022-07-09T13:32:40;4.20;;;2.50;;
64037;SDS011;54641;50.168;8.492;2022-07-09T13:35:10;2.60;;;2.10;;
64037;SDS011;54641;50.168;8.492;2022-07-09T13:37:41;3.00;;;2.40;;
64037;SDS011;54641;50.168;8.492;2022-07-09T13:40:11;2.90;;;2.60;;
64037;SDS011;54641;50.168;8.492;2022-07-09T13:42:42;3.40;;;2.40;;
64037;SDS011;54641;50.168;8.492;2022-07-09T13:45:13;3.70;;;2.90;;
64037;SDS011;54641;50.168;8.492;2022-07-09T13:47:44;3.70;;;2.50;;
64037;SDS011;54641;50.168;8.492;2022-07-09T13:50:15;3.60;;;2.70;;
64037;SDS011;54641;50.168;8.492;2022-07-09T13:52:47;6.10;;;2.60;;
64037;SDS011;54641;50.168;8.492;2022-07-09T13:55:17;3.20;;;2.60;;
64037;SDS011;54641;50.168;8.492;2022-07-09T13:57:48;3.30;;;2.60;;
64037;SDS011;54641;50.168;8.492;2022-07-09T14:00:18;3.10;;;2.50;;
64037;SDS011;54641;50.168;8.492;2022-07-09T14:02:49;3.80;;;2.50;;
64037;SDS011;54641;50.168;8.492;2022-07-09T14:05:19;3.60;;;2.60;;
64037;SDS011;54641;50.168;8.492;2022-07-09T14:07:50;3.30;;;2.40;;
64037;SDS011;54641;50.168;8.492;2022-07-09T14:10:21;3.80;;;2.60;;
64037;SDS011;54641;50.168;8.492;2022-07-09T14:12:51;3.90;;;2.90;;
64037;SDS011;54641;50.168;8.492;2022-07-09T14:15:22;3.30;;;2.50;;
64037;SDS011;54641;50.168;8.492;2022-07-09T14:17:53;3.00;;;2.50;;
64037;SDS011;54641;50.168;8.492;2022-07-09T14:20:23;4.20;;;2.50;;
64037;SDS011;54641;50.168;8.492;2022-07-09T14:22:54;4.90;;;2.70;;
64037;SDS011;54641;50.168;8.492;2022-07-09T14:25:24;4.60;;;2.70;;
64037;SDS011;54641;50.168;8.492;2022-07-09T14:27:55;3.40;;;2.50;;
64037;SDS011;54641;50.168;8.492;2022-07-09T14:30:25;3.30;;;2.40;;
64037;SDS011;54641;50.168;8.492;2022-07-09T14:32:56;4.60;;;2.80;;
64037;SDS011;54641;50.168;8.492;2022-07-09T14:35:27;3.20;;;2.50;;
64037;SDS011;54641;50.168;8.492;2022-07-09T14:37:57;3.60;;;2.40;;
64037;SDS011;54641;50.168;8.492;2022-07-09T14:40:28;2.70;;;2.50;;
64037;SDS011;54641;50.168;8.492;2022-07-09T14:42:59;7.00;;;2.90;;
64037;SDS011;54641;50.168;8.492;2022-07-09T14:45:30;6.40;;;2.90;;
64037;SDS011;54641;50.168;8.492;2022-07-09T14:48:01;4.90;;;2.60;;
64037;SDS011;54641;50.168;8.492;2022-07-09T14:50:33;3.30;;;2.60;;
64037;SDS011;54641;50.168;8.492;2022-07-09T14:53:04;3.40;;;2.50;;
64037;SDS011;54641;50.168;8.492;2022-07-09T14:55:35;4.30;;;3.10;;
64037;SDS011;54641;50.168;8.492;2022-07-09T14:58:06;2.90;;;2.50;;
64037;SDS011;54641;50.168;8.492;2022-07-09T15:00:36;4.50;;;2.80;;
64037;SDS011;54641;50.168;8.492;2022-07-09T15:03:07;4.20;;;2.70;;
64037;SDS011;54641;50.168;8.492;2022-07-09T15:05:37;4.80;;;2.90;;
64037;SDS011;54641;50.168;8.492;2022-07-09T15:08:11;3.30;;;2.40;;
64037;SDS011;54641;50.168;8.492;2022-07-09T15:10:43;3.50;;;2.70;;
64037;SDS011;54641;50.168;8.492;2022-07-09T15:13:14;5.10;;;2.70;;
64037;SDS011;54641;50.168;8.492;2022-07-09T15:15:47;3.60;;;3.00;;
64037;SDS011;54641;50.168;8.492;2022-07-09T15:18:18;4.30;;;2.60;;
64037;SDS011;54641;50.168;8.492;2022-07-09T15:20:49;4.00;;;2.50;;
64037;SDS011;54641;50.168;8.492;2022-07-09T15:23:19;4.90;;;2.80;;
64037;SDS011;54641;50.168;8.492;2022-07-09T15:25:50;3.50;;;2.90;;